Terminal Aerodrome Forecast
Issued by NWS Los Angeles, CA

Home | Current Version | Previous Version | Text Only | Print | Product List | Glossary On
Versions: 1 2 3 4 5 6 7 8 9 10 11 12 13 14 15 16 17 18 19 20 21 22 23 24 25 26
000
FTUS46 KLOX 291123
TAFSMX
TAF
KSMX 291123Z 2912/3012 VRB03KT 2SM BR OVC002
     FM291500 VRB03KT 5SM BR OVC004
     FM291700 VRB03KT P6SM SCT008
     FM291900 30012KT P6SM SKC
     FM300300 32007KT 6SM BR BKN005
     FM300700 VRB03KT 3SM BR OVC002=

USA.gov is the U.S. government's official web portal to all federal, state and local government web resources and services.